This is the latest recevied weather packets stored in our database for station/object dl9mfl-6. If no packets are shown the sender has not sent any weather packets the latest 10 day(s).
| Time | Temp. | Humidity | Pressure | Rain* | Wind** | Luminosity | Snow |
|---|---|---|---|---|---|---|---|
| 1777737790 | 21.67° C | 37% | 1019.5 hPa | 0 mm | - | - | - |
| 1777737782 | 24.44° C | 32% | 1015.7 hPa | 0 mm | - | - | - |
| 1777737778 | 21.67° C | 36% | 1019.5 hPa | 0 mm | - | - | - |
| 1777737774 | 21.67° C | 36% | 1019.5 hPa | 0 mm | - | - | - |
| 1777737770 | 21.67° C | 37% | 1019.5 hPa | 0 mm | - | - | - |
| 1777737766 | 21.67° C | 38% | 1019.5 hPa | 0 mm | - | - | - |
| 1777737761 | 21.67° C | 39% | 1019.5 hPa | 0 mm | - | - | - |
| 1777737753 | 21.67° C | 39% | 1019.4 hPa | 0 mm | - | - | - |
| 1777737749 | 21.67° C | 38% | 1019.5 hPa | 0 mm | - | - | - |
| 1777737745 | 21.67° C | 38% | 1019.5 hPa | 0 mm | - | - | - |
| 1777737741 | 21.67° C | 38% | 1019.7 hPa | 0 mm | - | - | - |
| 1777737737 | 21.67° C | 38% | 1019.5 hPa | 0 mm | - | - | - |
| 1777737729 | 21.67° C | 37% | 1019.5 hPa | 0 mm | - | - | - |
| 1777737724 | 21.67° C | 38% | 1019.7 hPa | 0 mm | - | - | - |
| 1777737721 | 24.44° C | 31% | 1015.7 hPa | 0 mm | - | - | - |
| 1777737716 | 21.67° C | 38% | 1019.7 hPa | 0 mm | - | - | - |
| 1777737713 | 21.67° C | 37% | 1019.7 hPa | 0 mm | - | - | - |
| 1777737708 | 21.11° C | 37% | 1019.7 hPa | 0 mm | - | - | - |
| 1777737700 | 21.11° C | 37% | 1019.7 hPa | 0 mm | - | - | - |
| 1777737696 | 21.11° C | 37% | 1019.7 hPa | 0 mm | - | - | - |
| 1777737692 | 21.11° C | 38% | 1019.7 hPa | 0 mm | - | - | - |
| 1777737688 | 21.11° C | 37% | 1019.8 hPa | 0 mm | - | - | - |
| 1777737684 | 21.11° C | 37% | 1019.8 hPa | 0 mm | - | - | - |
| 1777737680 | 24.44° C | 32% | 1015.7 hPa | 0 mm | - | - | - |
| 1777737676 | 24.44° C | 30% | 1015.7 hPa | 0 mm | - | - | - |
* Rain latest hour (hover to see other rain measurements)
** Current wind speed in m/s (hover to see current wind gust speed)